Columbus, IN

11:23 AM EDT on August 26, 2016 (GMT -0400)
Jackson St. | | Change Station

Elev 627 ft 39.21 °N, 85.92 °W | Updated 9 seconds ago

Mostly Cloudy
Mostly Cloudy
86.4 °F
Feels Like 98 °F
N
2.0
Wind Variable Wind from NNW
Gusts 4.0 mph

Today
High -- | Low -- °F
--% Chance of Precip.
Yesterday
High -- | Low -- °F
Precip. -- in
Pressure 30.16 in
Visibility 10.0 miles
Clouds Scattered Clouds 1400 ft
Mostly Cloudy 4000 ft
Heat Index 98 °F
Dew Point 77.1 °F
Humidity 74%
Rainfall 0.00 in
Snow Depth Not available.
7:07 AM 8:22 PM
Waning Crescent, 34% visible
METAR KBAK 261445Z 00000KT 10SM SCT014 BKN040 27/26 A3016
Pressure 30.16 in
Visibility 10.0 miles
Clouds Scattered Clouds 1400 ft
Mostly Cloudy 4000 ft
Heat Index 98 °F
Dew Point 77.1 °F
Humidity 74%
Rainfall 0.00 in
Snow Depth Not available.
7:07 AM 8:22 PM
Waning Crescent, 34% visible
METAR KBAK 261445Z 00000KT 10SM SCT014 BKN040 27/26 A3016

10-Day Weather Forecast

Almanac

Astronomy

Aug. 26, 2016 Rise Set
Actual Time
Civil Twilight
Nautical Twilight
Astronomical Twilight
Moon
Length of Visible Light
Length of Day
Tomorrow will be .
, % of the Moon is Illuminated

Today's Extremes

State Highs State Lows

Community

WunderPhotos

Upload Photos

1,935,104 photos uploaded!

WunderBlog® & News

Nearby

Air Quality

  Air Quality AQ Index Pollutant
Not available.

Snow Depth

Station Depth Elevation

Earthquake Activity

City Distance Mag. Time & Date
Minimum magnitude displayed is 2.5.

Coastal Water Temperatures

Place Temperature

Stations

Nearby Weather Stations

Station Location Temp. Windchill Dew Point Humidity Wind Precip. Elev Updated Type
                   

Watches & Warnings

There are currently no watches in effect.